createdAt,value
2019-04-30T00:04:00.331Z,44.50
2019-04-30T00:09:05.380Z,43.87
2019-04-30T00:14:09.332Z,44.29
2019-04-30T00:19:15.872Z,44.29
2019-04-30T00:24:18.759Z,44.06
2019-04-30T00:29:26.979Z,43.72
2019-04-30T00:34:30.907Z,44.52
2019-04-30T00:39:35.162Z,44.03
2019-04-30T00:44:39.307Z,43.96
2019-04-30T00:49:44.856Z,44.20
2019-04-30T00:54:48.922Z,44.21
2019-04-30T00:59:52.825Z,44.08
2019-04-30T01:05:05.083Z,44.08
2019-04-30T01:10:05.095Z,44.30
2019-04-30T01:15:11.159Z,44.55
2019-04-30T01:20:15.570Z,44.55
2019-04-30T01:25:20.746Z,46.19
2019-04-30T01:30:28.390Z,46.41
2019-04-30T01:35:32.816Z,46.35
2019-04-30T01:40:38.418Z,46.24
2019-04-30T01:45:42.313Z,46.66
2019-04-30T01:50:46.218Z,46.41
2019-04-30T01:56:00.635Z,46.18
2019-04-30T02:01:09.702Z,46.18
2019-04-30T02:06:13.513Z,46.39
2019-04-30T02:11:19.011Z,46.41
2019-04-30T02:16:23.009Z,46.42
2019-04-30T02:21:26.912Z,46.58
2019-04-30T02:26:30.714Z,46.84
2019-04-30T02:31:34.502Z,46.54
2019-04-30T02:36:45.264Z,47.38
2019-04-30T02:41:50.666Z,46.65
2019-04-30T02:46:54.694Z,47.10
2019-04-30T02:51:59.501Z,47.32
2019-04-30T02:57:11.958Z,47.37
2019-04-30T03:02:16.025Z,46.94
2019-04-30T03:07:19.879Z,47.09
2019-04-30T03:12:23.716Z,47.62
2019-04-30T03:17:39.346Z,47.27
2019-04-30T03:22:42.733Z,47.65
2019-04-30T03:27:46.564Z,47.28
2019-04-30T03:32:56.633Z,47.53
2019-04-30T03:37:55.997Z,47.53
2019-04-30T03:43:03.060Z,47.71
2019-04-30T03:48:05.356Z,47.75
2019-04-30T03:53:10.409Z,48.02
2019-04-30T03:58:14.462Z,47.48
2019-04-30T04:03:20.083Z,47.48
2019-04-30T04:08:31.296Z,47.56
2019-04-30T04:13:35.081Z,48.08
2019-04-30T04:18:40.261Z,47.64
2019-04-30T04:23:44.257Z,47.64
2019-04-30T04:28:49.606Z,47.79
2019-04-30T04:33:53.687Z,47.79
2019-04-30T04:38:59.917Z,47.85
2019-04-30T04:44:03.360Z,48.03
2019-04-30T04:49:09.014Z,48.10
2019-04-30T04:54:12.866Z,47.75
2019-04-30T04:59:16.646Z,47.75
2019-04-30T05:04:20.453Z,48.01
2019-04-30T05:09:24.224Z,48.25
2019-04-30T05:14:28.810Z,48.39
2019-04-30T05:19:32.718Z,48.41
2019-04-30T05:24:36.504Z,47.81
2019-04-30T05:29:40.275Z,47.81
2019-04-30T05:34:44.069Z,46.65
2019-04-30T05:39:48.948Z,46.65
2019-04-30T05:44:52.828Z,46.57
2019-04-30T05:49:58.432Z,46.47
2019-04-30T05:55:02.389Z,46.12
2019-04-30T06:00:06.932Z,46.30
2019-04-30T06:05:10.730Z,46.30
2019-04-30T06:10:21.241Z,46.28
2019-04-30T06:15:44.352Z,45.48
2019-04-30T06:20:48.594Z,45.36
2019-04-30T06:25:59.348Z,45.36
2019-04-30T06:30:59.143Z,45.65
2019-04-30T06:36:03.021Z,38.19
2019-04-30T06:41:08.602Z,37.61
2019-04-30T06:46:12.789Z,37.61
2019-04-30T06:51:16.583Z,35.65
2019-04-30T06:56:20.388Z,35.83
2019-04-30T07:01:26.115Z,35.83
2019-04-30T07:06:32.785Z,36.67
2019-04-30T07:11:39.177Z,37.78
2019-04-30T07:16:43.139Z,37.78
2019-04-30T07:21:49.448Z,37.90
2019-04-30T07:26:54.838Z,38.18
2019-04-30T07:31:59.219Z,38.34
2019-04-30T07:37:14.571Z,38.01
2019-04-30T07:42:09.253Z,38.17
2019-04-30T07:47:13.178Z,38.17
2019-04-30T07:52:18.687Z,38.33
2019-04-30T07:57:22.930Z,38.33
2019-04-30T08:02:29.741Z,38.00
2019-04-30T08:07:33.917Z,38.15
2019-04-30T08:12:41.884Z,38.15
2019-04-30T08:17:43.432Z,38.10
2019-04-30T08:22:49.238Z,37.85
2019-04-30T08:27:52.725Z,38.09
2019-04-30T08:32:56.489Z,38.03
2019-04-30T08:38:00.273Z,38.38
2019-04-30T08:43:04.397Z,37.63
2019-04-30T08:48:09.095Z,37.63
2019-04-30T08:53:25.991Z,37.88
2019-04-30T08:58:20.571Z,38.11
2019-04-30T09:03:24.201Z,38.11
2019-04-30T09:08:29.437Z,38.23
2019-04-30T09:13:33.420Z,37.69
2019-04-30T09:18:39.227Z,37.54
2019-04-30T09:23:49.632Z,37.54
2019-04-30T09:28:49.478Z,37.52
2019-04-30T09:33:53.398Z,37.52
2019-04-30T09:39:00.992Z,37.25
2019-04-30T09:44:02.718Z,37.85
2019-04-30T09:49:06.505Z,37.85
2019-04-30T09:54:12.520Z,38.27
2019-04-30T09:59:15.925Z,38.25
2019-04-30T10:04:20.660Z,37.96
2019-04-30T10:09:24.863Z,38.49
2019-04-30T10:14:28.646Z,38.49
2019-04-30T10:19:32.584Z,34.31
2019-04-30T10:24:36.401Z,36.73
2019-04-30T10:29:41.229Z,36.43
2019-04-30T10:34:45.174Z,36.43
2019-04-30T10:39:49.178Z,37.08
2019-04-30T10:44:53.039Z,37.22
2019-04-30T10:49:58.478Z,36.95
2019-04-30T10:55:04.525Z,36.95
2019-04-30T11:00:10.131Z,37.17
2019-04-30T11:05:14.054Z,37.69
2019-04-30T11:10:18.919Z,36.79
2019-04-30T11:15:22.889Z,36.88
2019-04-30T11:20:26.867Z,38.26
2019-04-30T11:25:31.938Z,38.26
2019-04-30T11:30:37.364Z,38.86
2019-04-30T11:35:42.327Z,31.54
2019-04-30T11:40:46.099Z,31.42
2019-04-30T11:46:38.397Z,33.77
2019-04-30T11:51:41.901Z,33.77
2019-04-30T11:56:45.671Z,34.10
2019-04-30T12:01:51.702Z,34.10
2019-04-30T12:06:57.156Z,34.37
2019-04-30T12:12:00.950Z,35.43
2019-04-30T12:17:04.744Z,35.47
2019-04-30T12:22:08.571Z,35.47
2019-04-30T12:27:12.377Z,35.65
2019-04-30T12:32:16.165Z,35.55
2019-04-30T12:37:20.034Z,35.23
2019-04-30T12:42:23.844Z,34.85
2019-04-30T12:47:29.606Z,32.46
2019-04-30T12:52:49.490Z,33.95
2019-04-30T12:57:58.850Z,33.54
2019-04-30T13:03:00.353Z,32.96
2019-04-30T13:08:04.907Z,32.96
2019-04-30T13:13:09.739Z,32.22
2019-04-30T13:18:13.854Z,32.43
2019-04-30T13:23:18.626Z,32.43
2019-04-30T13:28:24.355Z,32.59
2019-04-30T13:33:38.915Z,32.72
2019-04-30T13:38:52.317Z,32.93
2019-04-30T13:44:01.812Z,32.60
2019-04-30T13:49:05.596Z,31.92
2019-04-30T13:54:09.464Z,32.12
2019-04-30T13:59:13.275Z,32.12
2019-04-30T14:04:27.332Z,32.20
2019-04-30T14:09:32.503Z,32.20
2019-04-30T14:14:36.361Z,31.92
2019-04-30T14:19:40.374Z,31.27
2019-04-30T14:24:44.169Z,31.63
2019-04-30T14:29:49.477Z,31.44
2019-04-30T14:34:53.396Z,30.80
2019-04-30T14:39:57.528Z,30.75
2019-04-30T14:45:18.150Z,30.57
2019-04-30T14:50:22.532Z,30.22
2019-04-30T14:55:43.968Z,30.78
2019-04-30T15:00:59.367Z,30.49
2019-04-30T15:06:03.352Z,29.54
2019-04-30T15:11:08.939Z,29.50
2019-04-30T15:16:12.955Z,29.78
2019-04-30T15:21:16.737Z,29.78
2019-04-30T15:26:22.866Z,29.75
2019-04-30T15:31:26.198Z,29.96
2019-04-30T15:36:29.980Z,29.99
2019-04-30T15:41:33.801Z,29.10
2019-04-30T15:46:38.363Z,29.49
2019-04-30T15:51:42.144Z,29.21
2019-04-30T15:56:46.398Z,28.48
2019-04-30T16:01:52.979Z,28.75
2019-04-30T16:06:58.401Z,28.97
2019-04-30T16:12:10.974Z,29.70
2019-04-30T16:17:24.883Z,29.09
2019-04-30T16:22:29.159Z,29.09
2019-04-30T16:27:33.183Z,29.51
2019-04-30T16:32:36.957Z,29.77
2019-04-30T16:37:40.721Z,29.71
2019-04-30T16:42:44.659Z,29.34
2019-04-30T16:47:48.462Z,28.95
2019-04-30T16:52:52.254Z,29.53
2019-04-30T16:57:56.062Z,30.20
2019-04-30T17:03:04.407Z,29.98
2019-04-30T17:08:14.058Z,29.95
2019-04-30T17:13:25.940Z,29.57
2019-04-30T17:18:29.813Z,29.53
2019-04-30T17:23:33.591Z,30.11
2019-04-30T17:28:38.605Z,30.11
2019-04-30T17:33:42.478Z,30.50
2019-04-30T17:38:46.363Z,30.50
2019-04-30T17:43:50.207Z,29.83
2019-04-30T17:48:53.990Z,29.83
2019-04-30T17:54:16.464Z,30.54
2019-04-30T17:59:20.312Z,30.65
2019-04-30T18:04:24.164Z,30.80
2019-04-30T18:09:30.519Z,30.42
2019-04-30T18:14:34.448Z,31.23
2019-04-30T18:19:51.127Z,31.23
2019-04-30T18:25:07.589Z,31.44
2019-04-30T18:30:14.087Z,31.13
2019-04-30T18:35:18.646Z,31.13
2019-04-30T18:40:23.535Z,32.02
2019-04-30T18:45:28.829Z,32.13
2019-04-30T18:50:32.746Z,32.13
2019-04-30T18:55:36.644Z,32.79
2019-04-30T19:00:42.038Z,32.79
2019-04-30T19:05:49.812Z,32.63
2019-04-30T19:11:01.221Z,33.38
2019-04-30T19:16:33.312Z,32.80
2019-04-30T19:21:40.241Z,32.80
2019-04-30T19:26:42.900Z,33.35
2019-04-30T19:31:46.757Z,33.61
2019-04-30T19:36:50.573Z,34.00
2019-04-30T19:41:54.446Z,33.87
2019-04-30T19:46:58.641Z,34.09
2019-04-30T19:52:08.569Z,34.17
2019-04-30T19:57:10.135Z,34.30
2019-04-30T20:02:13.583Z,34.31
2019-04-30T20:07:19.431Z,33.93
2019-04-30T20:12:23.183Z,34.38
2019-04-30T20:17:26.971Z,34.38
2019-04-30T20:22:30.965Z,34.54
2019-04-30T20:27:34.796Z,34.54
2019-04-30T20:32:38.592Z,34.94
2019-04-30T20:38:00.130Z,34.59
2019-04-30T20:43:03.943Z,35.21
2019-04-30T20:48:08.951Z,35.21
2019-04-30T20:53:12.962Z,34.85
2019-04-30T20:58:16.768Z,34.85
2019-04-30T21:03:20.568Z,34.85
2019-04-30T21:08:24.375Z,35.07
2019-04-30T21:13:29.593Z,34.98
2019-04-30T21:18:33.614Z,34.98
2019-04-30T21:23:39.221Z,35.39
2019-04-30T21:28:43.125Z,35.17
2019-04-30T21:33:49.274Z,35.63
2019-04-30T21:38:53.461Z,35.61
2019-04-30T21:43:57.305Z,35.53
2019-04-30T21:49:01.142Z,36.04
2019-04-30T21:54:04.981Z,36.12
2019-04-30T21:59:08.777Z,35.73
2019-04-30T22:04:12.591Z,35.73
2019-04-30T22:09:16.875Z,35.92
2019-04-30T22:14:20.694Z,35.99
2019-04-30T22:19:24.511Z,36.34
2019-04-30T22:24:30.381Z,36.34
2019-04-30T22:29:39.317Z,35.77
2019-04-30T22:34:40.525Z,36.05
2019-04-30T22:39:53.749Z,36.18
2019-04-30T22:44:57.605Z,36.54
2019-04-30T22:50:01.414Z,36.39
2019-04-30T22:55:06.275Z,36.39
2019-04-30T23:00:13.733Z,36.53
2019-04-30T23:05:18.147Z,36.53
2019-04-30T23:10:22.061Z,36.23
2019-04-30T23:15:25.847Z,36.23
2019-04-30T23:20:29.809Z,36.70
2019-04-30T23:25:33.598Z,36.51
2019-04-30T23:30:37.406Z,36.55
2019-04-30T23:35:41.216Z,37.15
2019-04-30T23:40:49.903Z,37.15
2019-04-30T23:45:53.729Z,36.67
2019-04-30T23:50:57.562Z,37.14
2019-04-30T23:56:01.369Z,37.14
